Time;durP1;ratioP1;P1;durP2;ratioP2;P2;SDS_P1;SDS_P2;PMS_P1;PMS_P2;Temp;Humidity;BMP_temperature;BMP_pressure;BME280_temperature;BME280_humidity;BME280_pressure;Samples;Min_cycle;Max_cycle;Signal;HPM_P1;HPM_P2
2021/10/30 00:02:10;;;;;;;23.30;10.68;;;;;;;;;;5054038;28;20399;-55
2021/10/30 00:04:36;;;;;;;23.27;10.77;;;;;;;;;;5053368;28;20044;-55
2021/10/30 00:07:03;;;;;;;26.45;10.13;;;;;;;;;;5053588;28;20088;-55
2021/10/30 00:09:28;;;;;;;22.05;10.45;;;;;;;;;;5054113;28;20047;-55
2021/10/30 00:11:54;;;;;;;21.42;9.93;;;;;;;;;;5053744;28;20075;-56
2021/10/30 00:14:21;;;;;;;19.85;9.02;;;;;;;;;;5052909;28;20112;-55
2021/10/30 00:16:46;;;;;;;30.90;11.23;;;;;;;;;;5053477;28;20481;-55
2021/10/30 00:19:13;;;;;;;25.88;10.43;;;;;;;;;;5053758;28;20017;-55
2021/10/30 00:21:39;;;;;;;22.30;10.73;;;;;;;;;;5051992;28;20017;-55
2021/10/30 00:24:05;;;;;;;24.10;9.82;;;;;;;;;;5052611;28;20025;-54
2021/10/30 00:26:31;;;;;;;19.20;9.05;;;;;;;;;;5053380;28;20017;-55
2021/10/30 00:28:57;;;;;;;26.17;11.68;;;;;;;;;;5052080;28;20029;-55
2021/10/30 00:31:23;;;;;;;25.33;9.70;;;;;;;;;;5052986;28;20061;-55
2021/10/30 00:33:49;;;;;;;27.42;10.70;;;;;;;;;;5051043;28;20028;-55
2021/10/30 00:36:15;;;;;;;25.00;10.85;;;;;;;;;;5053310;28;20096;-55
2021/10/30 00:38:41;;;;;;;25.27;9.35;;;;;;;;;;5053272;28;20124;-54
2021/10/30 00:41:09;;;;;;;25.33;10.55;;;;;;;;;;5053672;28;20021;-55
2021/10/30 00:43:36;;;;;;;18.65;8.68;;;;;;;;;;5052605;28;20041;-55
2021/10/30 00:46:02;;;;;;;24.25;10.52;;;;;;;;;;5052415;28;20025;-55
2021/10/30 00:48:28;;;;;;;24.33;9.60;;;;;;;;;;5053714;28;20028;-54
2021/10/30 00:50:59;;;;;;;20.00;8.15;;;;;;;;;;5053217;28;20116;-54
2021/10/30 00:53:34;;;;;;;17.58;8.82;;;;;;;;;;5052107;28;20090;-55
2021/10/30 00:56:02;;;;;;;19.05;8.70;;;;;;;;;;5052829;28;20033;-55
2021/10/30 00:58:38;;;;;;;19.52;8.45;;;;;;;;;;5053327;28;20074;-55
2021/10/30 01:01:05;;;;;;;21.08;9.43;;;;;;;;;;5052991;28;20032;-55
2021/10/30 01:03:33;;;;;;;17.23;9.15;;;;;;;;;;5051912;28;20029;-55
2021/10/30 01:05:59;;;;;;;18.77;9.40;;;;;;;;;;5052415;28;20405;-55
2021/10/30 01:08:25;;;;;;;22.45;9.93;;;;;;;;;;5052166;28;20025;-55
2021/10/30 01:10:52;;;;;;;23.00;10.48;;;;;;;;;;5052955;28;20036;-54
2021/10/30 01:13:18;;;;;;;12.60;7.30;;;;;;;;;;5052126;28;20029;-54
2021/10/30 01:15:43;;;;;;;21.55;9.23;;;;;;;;;;5052302;28;20108;-54
2021/10/30 01:18:10;;;;;;;17.92;8.23;;;;;;;;;;5052924;28;20025;-55
2021/10/30 01:20:36;;;;;;;17.10;7.97;;;;;;;;;;5052824;28;20025;-55
2021/10/30 01:23:03;;;;;;;23.60;10.30;;;;;;;;;;5051293;28;20328;-55
2021/10/30 01:25:29;;;;;;;22.45;10.27;;;;;;;;;;5052330;28;20052;-55
2021/10/30 01:27:56;;;;;;;25.30;10.25;;;;;;;;;;5051872;28;20028;-55
2021/10/30 01:30:22;;;;;;;17.30;8.48;;;;;;;;;;5051111;28;20035;-55
2021/10/30 01:32:58;;;;;;;23.13;11.38;;;;;;;;;;5052041;28;20029;-55
2021/10/30 01:35:32;;;;;;;20.27;10.00;;;;;;;;;;5052263;28;20028;-54
2021/10/30 01:37:58;;;;;;;21.98;10.23;;;;;;;;;;5052690;28;20021;-55
2021/10/30 01:40:25;;;;;;;21.48;9.32;;;;;;;;;;5052589;28;20036;-55
2021/10/30 01:42:59;;;;;;;18.38;8.77;;;;;;;;;;5052562;28;20378;-54
2021/10/30 01:45:25;;;;;;;23.27;9.43;;;;;;;;;;5052129;28;20021;-54
2021/10/30 01:47:51;;;;;;;21.90;9.73;;;;;;;;;;5052043;28;20028;-55
2021/10/30 01:50:18;;;;;;;22.00;8.98;;;;;;;;;;5052248;28;20029;-55
2021/10/30 01:52:44;;;;;;;24.02;9.85;;;;;;;;;;5052094;28;20063;-54
2021/10/30 01:55:10;;;;;;;20.58;9.43;;;;;;;;;;5051520;28;20025;-55
2021/10/30 01:57:36;;;;;;;11.35;6.43;;;;;;;;;;5052207;28;20087;-55
2021/10/30 02:00:06;;;;;;;16.25;7.65;;;;;;;;;;5051907;28;20443;-55
2021/10/30 02:02:32;;;;;;;19.38;8.20;;;;;;;;;;5052378;28;20117;-55
2021/10/30 02:04:58;;;;;;;19.65;8.02;;;;;;;;;;5050014;28;20071;-55
2021/10/30 02:07:25;;;;;;;26.05;9.75;;;;;;;;;;5031199;28;20044;-55
2021/10/30 02:09:51;;;;;;;17.73;7.90;;;;;;;;;;5032044;28;20524;-55
2021/10/30 02:12:17;;;;;;;21.98;9.90;;;;;;;;;;5032181;28;20357;-55
2021/10/30 02:14:43;;;;;;;24.88;8.50;;;;;;;;;;5031849;28;20455;-55
2021/10/30 02:17:09;;;;;;;27.90;10.77;;;;;;;;;;5032259;28;20030;-55
2021/10/30 02:19:35;;;;;;;29.10;11.07;;;;;;;;;;5034180;28;20017;-55
2021/10/30 02:22:01;;;;;;;34.70;12.07;;;;;;;;;;5035875;28;20091;-54
2021/10/30 02:24:27;;;;;;;31.98;10.80;;;;;;;;;;5035158;28;20021;-55
2021/10/30 02:26:53;;;;;;;22.65;8.13;;;;;;;;;;5034498;28;20444;-55
2021/10/30 02:29:19;;;;;;;17.02;7.15;;;;;;;;;;5036127;28;20028;-55
2021/10/30 02:31:45;;;;;;;14.48;7.05;;;;;;;;;;5035546;28;20044;-55
2021/10/30 02:34:11;;;;;;;19.70;8.52;;;;;;;;;;5035025;28;20032;-54
2021/10/30 02:36:37;;;;;;;22.33;8.30;;;;;;;;;;5035271;28;20363;-54
2021/10/30 02:39:03;;;;;;;17.88;7.90;;;;;;;;;;5035562;28;20216;-54
2021/10/30 02:41:29;;;;;;;15.45;7.18;;;;;;;;;;5035503;28;20444;-55
2021/10/30 02:43:55;;;;;;;15.25;7.03;;;;;;;;;;5034706;28;20034;-55
2021/10/30 02:46:21;;;;;;;15.93;6.85;;;;;;;;;;5035470;28;20029;-55
2021/10/30 02:48:47;;;;;;;17.63;6.93;;;;;;;;;;5035438;28;20025;-55
2021/10/30 02:51:13;;;;;;;16.48;8.10;;;;;;;;;;5035598;28;20431;-55
2021/10/30 02:53:39;;;;;;;13.07;6.93;;;;;;;;;;5034424;28;20029;-54
2021/10/30 02:56:05;;;;;;;13.93;6.72;;;;;;;;;;5035673;28;20539;-55
2021/10/30 02:58:31;;;;;;;15.45;7.78;;;;;;;;;;5035331;28;20084;-55
2021/10/30 03:00:57;;;;;;;16.92;6.68;;;;;;;;;;5035200;28;20025;-55
2021/10/30 03:03:23;;;;;;;19.77;8.38;;;;;;;;;;5034391;28;20055;-55
2021/10/30 03:05:49;;;;;;;14.55;7.38;;;;;;;;;;5035223;28;20057;-55
2021/10/30 03:08:15;;;;;;;18.08;7.95;;;;;;;;;;5034947;28;20017;-55
2021/10/30 03:10:42;;;;;;;13.27;7.03;;;;;;;;;;5034509;28;20034;-54
2021/10/30 03:13:07;;;;;;;10.10;5.45;;;;;;;;;;5034206;28;20032;-55
2021/10/30 03:15:33;;;;;;;16.65;7.38;;;;;;;;;;5035118;28;20026;-55
2021/10/30 03:17:59;;;;;;;16.83;7.63;;;;;;;;;;5035079;28;20026;-55
2021/10/30 03:20:25;;;;;;;17.27;7.55;;;;;;;;;;5035123;28;20443;-54
2021/10/30 03:22:51;;;;;;;22.13;7.88;;;;;;;;;;5034212;28;20086;-54
2021/10/30 03:25:17;;;;;;;21.42;7.45;;;;;;;;;;5034612;28;20029;-54
2021/10/30 03:27:43;;;;;;;14.38;8.30;;;;;;;;;;5033960;28;20026;-54
2021/10/30 03:30:11;;;;;;;16.55;6.43;;;;;;;;;;5034165;28;20391;-54
2021/10/30 03:32:37;;;;;;;13.30;6.72;;;;;;;;;;5034579;28;20091;-54
2021/10/30 03:35:03;;;;;;;14.48;7.35;;;;;;;;;;5033686;28;20394;-55
2021/10/30 03:37:32;;;;;;;16.80;7.32;;;;;;;;;;5034437;28;20451;-54
2021/10/30 03:39:58;;;;;;;17.17;8.32;;;;;;;;;;5034426;28;20448;-54
2021/10/30 03:42:24;;;;;;;14.52;7.55;;;;;;;;;;5034465;28;20108;-53
2021/10/30 03:44:50;;;;;;;13.20;7.13;;;;;;;;;;5033621;28;20091;-54
2021/10/30 03:47:17;;;;;;;13.32;6.95;;;;;;;;;;5034568;28;20026;-54
2021/10/30 03:49:43;;;;;;;16.80;8.07;;;;;;;;;;5034210;28;20088;-54
2021/10/30 03:52:09;;;;;;;15.25;7.07;;;;;;;;;;5034120;28;20455;-54
2021/10/30 03:54:35;;;;;;;15.40;7.20;;;;;;;;;;5033498;28;20025;-54
2021/10/30 03:57:01;;;;;;;19.48;6.47;;;;;;;;;;5034229;28;20340;-54
2021/10/30 03:59:28;;;;;;;15.20;7.55;;;;;;;;;;5028149;28;20502;-54
2021/10/30 04:01:54;;;;;;;12.70;6.30;;;;;;;;;;5052806;28;20032;-54
2021/10/30 04:04:20;;;;;;;17.05;7.18;;;;;;;;;;5053394;28;20070;-54
2021/10/30 04:06:46;;;;;;;14.93;7.18;;;;;;;;;;5053578;28;20450;-55
2021/10/30 04:09:12;;;;;;;13.35;6.75;;;;;;;;;;5053513;28;20049;-54
2021/10/30 04:11:38;;;;;;;16.75;6.75;;;;;;;;;;5053484;28;20451;-54
2021/10/30 04:14:05;;;;;;;13.10;6.82;;;;;;;;;;5053125;28;20025;-54
2021/10/30 04:16:34;;;;;;;13.25;7.57;;;;;;;;;;5053619;28;20017;-54
2021/10/30 04:19:00;;;;;;;11.25;6.32;;;;;;;;;;5054173;28;20029;-54
2021/10/30 04:21:26;;;;;;;12.73;6.45;;;;;;;;;;5053575;28;20021;-54
2021/10/30 04:23:53;;;;;;;16.70;7.72;;;;;;;;;;5045346;28;20021;-54
2021/10/30 04:26:18;;;;;;;14.35;7.97;;;;;;;;;;5033475;28;20494;-54
2021/10/30 04:28:44;;;;;;;14.77;7.03;;;;;;;;;;5032275;28;20037;-55
2021/10/30 04:31:18;;;;;;;16.85;8.00;;;;;;;;;;5033577;28;20494;-54
2021/10/30 04:33:44;;;;;;;11.73;6.20;;;;;;;;;;5032361;28;20045;-54
2021/10/30 04:36:15;;;;;;;15.52;6.93;;;;;;;;;;5033429;28;20041;-54
2021/10/30 04:38:41;;;;;;;;;;;;;;;;;;5033998;28;20029;-54
2021/10/30 04:41:07;;;;;;;13.73;6.35;;;;;;;;;;5032840;28;20246;-54
2021/10/30 04:43:33;;;;;;;13.40;7.28;;;;;;;;;;5032255;28;20024;-54
2021/10/30 04:45:59;;;;;;;14.50;6.45;;;;;;;;;;5033119;28;20116;-54
2021/10/30 04:48:25;;;;;;;15.02;6.80;;;;;;;;;;5033644;28;20049;-54
2021/10/30 04:50:51;;;;;;;13.55;6.53;;;;;;;;;;5033646;28;20032;-54
2021/10/30 04:53:17;;;;;;;15.35;7.65;;;;;;;;;;5031502;28;20037;-54
2021/10/30 04:55:43;;;;;;;16.95;7.35;;;;;;;;;;5032536;28;20030;-55
2021/10/30 04:58:09;;;;;;;12.40;6.57;;;;;;;;;;5033079;28;20029;-55
2021/10/30 05:00:35;;;;;;;14.20;7.00;;;;;;;;;;5032990;28;20025;-54
2021/10/30 05:03:01;;;;;;;15.15;7.20;;;;;;;;;;5032378;28;20151;-54
2021/10/30 05:05:27;;;;;;;15.07;7.57;;;;;;;;;;5031354;28;20112;-54
2021/10/30 05:07:53;;;;;;;13.32;7.00;;;;;;;;;;5032916;28;20045;-54
2021/10/30 05:10:19;;;;;;;15.15;7.03;;;;;;;;;;5032460;28;20466;-54
2021/10/30 05:12:45;;;;;;;17.35;7.35;;;;;;;;;;5035072;28;20045;-55
2021/10/30 05:15:11;;;;;;;14.65;6.75;;;;;;;;;;5040428;28;20017;-55
2021/10/30 05:17:37;;;;;;;10.32;5.88;;;;;;;;;;5041535;28;20033;-54
2021/10/30 05:20:03;;;;;;;14.45;7.43;;;;;;;;;;5043324;28;20024;-54
2021/10/30 05:22:29;;;;;;;11.38;6.22;;;;;;;;;;5039795;28;20435;-54
2021/10/30 05:24:55;;;;;;;12.48;5.85;;;;;;;;;;5039978;28;20083;-55
2021/10/30 05:27:21;;;;;;;13.80;6.90;;;;;;;;;;5040103;28;20080;-54
2021/10/30 05:29:47;;;;;;;13.80;6.68;;;;;;;;;;5042219;28;20368;-54
2021/10/30 05:32:13;;;;;;;10.55;5.22;;;;;;;;;;5042751;28;20064;-55
2021/10/30 05:34:39;;;;;;;11.00;5.68;;;;;;;;;;5040419;28;20039;-54
2021/10/30 05:37:05;;;;;;;13.25;6.38;;;;;;;;;;5042646;28;20088;-54
2021/10/30 05:39:31;;;;;;;14.25;6.10;;;;;;;;;;5041246;28;20269;-54
2021/10/30 05:41:57;;;;;;;12.68;5.60;;;;;;;;;;5041044;28;20021;-54
2021/10/30 05:44:23;;;;;;;10.82;6.15;;;;;;;;;;5042047;28;20021;-54
2021/10/30 05:46:50;;;;;;;11.23;5.32;;;;;;;;;;5041823;28;20393;-54
2021/10/30 05:49:18;;;;;;;11.95;5.85;;;;;;;;;;5032872;28;20098;-55
2021/10/30 05:51:44;;;;;;;13.50;6.60;;;;;;;;;;5031992;28;20040;-55
2021/10/30 05:54:09;;;;;;;11.30;6.38;;;;;;;;;;5034377;28;20033;-54
2021/10/30 05:56:36;;;;;;;14.25;6.75;;;;;;;;;;5041828;28;20037;-54
2021/10/30 05:59:02;;;;;;;10.85;5.80;;;;;;;;;;5048841;28;20070;-54
2021/10/30 06:01:28;;;;;;;15.32;5.75;;;;;;;;;;5056391;28;20354;-54
2021/10/30 06:03:55;;;;;;;18.77;6.57;;;;;;;;;;5054865;28;20025;-55
2021/10/30 06:06:21;;;;;;;12.57;5.97;;;;;;;;;;5055808;28;20355;-54
2021/10/30 06:08:47;;;;;;;12.10;6.35;;;;;;;;;;5055821;28;20036;-54
2021/10/30 06:11:13;;;;;;;14.77;5.97;;;;;;;;;;5056058;28;20025;-54
2021/10/30 06:13:39;;;;;;;14.23;5.68;;;;;;;;;;5053684;28;20035;-54
2021/10/30 06:16:05;;;;;;;11.82;5.78;;;;;;;;;;5056195;28;20111;-54
2021/10/30 06:18:31;;;;;;;12.68;5.75;;;;;;;;;;5056252;28;20098;-54
2021/10/30 06:20:57;;;;;;;10.73;5.68;;;;;;;;;;5055799;28;20053;-54
2021/10/30 06:23:23;;;;;;;14.40;5.38;;;;;;;;;;5051149;28;20025;-55
2021/10/30 06:25:49;;;;;;;8.07;4.82;;;;;;;;;;5035339;28;20426;-55
2021/10/30 06:28:15;;;;;;;10.30;5.00;;;;;;;;;;5034572;28;20030;-54
2021/10/30 06:30:41;;;;;;;8.40;5.05;;;;;;;;;;5050923;28;20029;-54
2021/10/30 06:33:07;;;;;;;9.25;5.15;;;;;;;;;;5048482;28;20067;-54
2021/10/30 06:35:33;;;;;;;11.60;5.43;;;;;;;;;;5051939;28;20020;-54
2021/10/30 06:37:59;;;;;;;10.52;5.18;;;;;;;;;;5055677;28;20029;-54
2021/10/30 06:40:25;;;;;;;12.23;5.57;;;;;;;;;;5055810;28;20439;-54
2021/10/30 06:42:51;;;;;;;8.77;4.68;;;;;;;;;;5042734;28;20061;-54
2021/10/30 06:45:17;;;;;;;10.98;4.65;;;;;;;;;;5035246;28;20431;-54
2021/10/30 06:47:43;;;;;;;7.30;4.35;;;;;;;;;;5035044;28;20030;-54
2021/10/30 06:50:19;;;;;;;7.55;4.25;;;;;;;;;;5035394;28;20025;-54
2021/10/30 06:52:45;;;;;;;8.18;3.38;;;;;;;;;;5035315;28;20076;-54
2021/10/30 06:55:11;;;;;;;10.60;5.47;;;;;;;;;;5034820;28;20029;-54
2021/10/30 06:57:37;;;;;;;7.18;4.60;;;;;;;;;;5033352;28;20022;-53
2021/10/30 07:00:05;;;;;;;6.53;3.78;;;;;;;;;;5035763;28;20028;-53
2021/10/30 07:02:32;;;;;;;7.18;4.05;;;;;;;;;;5034843;28;20374;-53
2021/10/30 07:04:59;;;;;;;12.32;5.15;;;;;;;;;;5033417;28;20362;-53
2021/10/30 07:07:25;;;;;;;6.47;3.95;;;;;;;;;;5035475;28;20037;-53
2021/10/30 07:09:54;;;;;;;7.90;4.40;;;;;;;;;;5035194;28;20320;-54
2021/10/30 07:12:21;;;;;;;6.45;4.18;;;;;;;;;;5034820;28;20029;-53
2021/10/30 07:14:47;;;;;;;10.15;4.85;;;;;;;;;;5034348;28;20034;-53
2021/10/30 07:17:13;;;;;;;7.85;3.58;;;;;;;;;;5035235;28;20029;-53
2021/10/30 07:19:39;;;;;;;12.02;4.63;;;;;;;;;;5034666;28;20103;-53
2021/10/30 07:22:05;;;;;;;8.93;4.40;;;;;;;;;;5034977;28;20068;-53
2021/10/30 07:24:31;;;;;;;6.90;4.15;;;;;;;;;;5034397;28;20022;-53
2021/10/30 07:26:58;;;;;;;5.55;3.40;;;;;;;;;;5034721;28;20040;-53
2021/10/30 07:29:24;;;;;;;8.23;4.03;;;;;;;;;;5034750;28;20029;-53
2021/10/30 07:31:50;;;;;;;5.90;4.15;;;;;;;;;;5034231;28;20188;-53
2021/10/30 07:34:16;;;;;;;7.57;4.05;;;;;;;;;;5033990;28;20841;-53
2021/10/30 07:36:41;;;;;;;7.65;4.10;;;;;;;;;;5034595;28;20475;-53
2021/10/30 07:39:07;;;;;;;8.95;4.45;;;;;;;;;;5034613;28;20350;-53
2021/10/30 07:41:33;;;;;;;8.13;4.05;;;;;;;;;;5034688;28;20021;-53
2021/10/30 07:43:59;;;;;;;7.22;4.57;;;;;;;;;;5033676;28;20056;-53
2021/10/30 07:46:25;;;;;;;8.27;4.78;;;;;;;;;;5034308;28;20586;-53
2021/10/30 07:48:55;;;;;;;7.22;4.60;;;;;;;;;;5034594;28;20115;-54
2021/10/30 07:51:22;;;;;;;10.32;4.70;;;;;;;;;;5033170;28;20375;-53
2021/10/30 07:53:48;;;;;;;7.22;4.32;;;;;;;;;;5033251;28;20647;-53
2021/10/30 07:56:15;;;;;;;6.60;3.95;;;;;;;;;;5034272;28;20068;-54
2021/10/30 07:58:42;;;;;;;5.78;3.63;;;;;;;;;;5032883;28;20030;-53
2021/10/30 08:01:08;;;;;;;8.45;4.25;;;;;;;;;;5034692;28;20387;-53
2021/10/30 08:03:34;;;;;;;5.22;3.15;;;;;;;;;;5033384;28;20021;-53
2021/10/30 08:06:00;;;;;;;8.05;4.40;;;;;;;;;;5033908;28;20168;-53
2021/10/30 08:08:26;;;;;;;7.45;4.35;;;;;;;;;;5034256;28;20192;-53
2021/10/30 08:10:52;;;;;;;6.28;4.20;;;;;;;;;;5034003;28;20383;-53
2021/10/30 08:13:18;;;;;;;7.43;4.47;;;;;;;;;;5032585;28;20091;-53
2021/10/30 08:15:44;;;;;;;6.50;3.55;;;;;;;;;;5033813;28;20048;-53
2021/10/30 08:18:10;;;;;;;7.85;4.15;;;;;;;;;;5034031;28;20448;-53
2021/10/30 08:20:36;;;;;;;9.77;5.18;;;;;;;;;;5034055;28;20083;-53
2021/10/30 08:23:02;;;;;;;8.15;4.07;;;;;;;;;;5032975;28;20117;-53
2021/10/30 08:25:28;;;;;;;6.30;3.83;;;;;;;;;;5033727;28;20045;-53
2021/10/30 08:27:54;;;;;;;8.68;4.72;;;;;;;;;;5033166;28;20026;-53
2021/10/30 08:30:20;;;;;;;10.45;4.60;;;;;;;;;;5031965;28;20037;-53
2021/10/30 08:32:47;;;;;;;8.85;4.05;;;;;;;;;;5033694;28;20030;-54
2021/10/30 08:35:13;;;;;;;8.63;4.43;;;;;;;;;;5032998;28;20045;-53
2021/10/30 08:37:39;;;;;;;8.57;3.97;;;;;;;;;;5033656;28;20048;-53
2021/10/30 08:40:07;;;;;;;6.90;3.58;;;;;;;;;;5033031;28;20109;-54
2021/10/30 08:42:33;;;;;;;8.45;4.13;;;;;;;;;;5033629;28;20754;-53
2021/10/30 08:44:59;;;;;;;8.93;4.93;;;;;;;;;;5032611;28;20032;-53
2021/10/30 08:47:25;;;;;;;7.63;4.20;;;;;;;;;;5033628;28;20026;-53
2021/10/30 08:49:54;;;;;;;8.75;4.43;;;;;;;;;;5033633;28;20027;-53
2021/10/30 08:52:21;;;;;;;10.38;4.85;;;;;;;;;;5033078;28;20452;-53
2021/10/30 08:54:47;;;;;;;10.20;5.15;;;;;;;;;;5031993;28;20032;-53
2021/10/30 08:57:13;;;;;;;9.50;4.55;;;;;;;;;;5033120;28;20414;-53
2021/10/30 08:59:43;;;;;;;6.93;4.43;;;;;;;;;;5033038;28;20025;-53
2021/10/30 09:02:09;;;;;;;;;;;;;;;;;;5033950;28;20051;-53
2021/10/30 09:04:35;;;;;;;6.40;4.05;;;;;;;;;;5032168;28;20390;-53
2021/10/30 09:07:05;;;;;;;6.10;3.75;;;;;;;;;;5032919;28;20121;-54
2021/10/30 09:09:31;;;;;;;7.15;3.80;;;;;;;;;;5032680;28;20072;-53
2021/10/30 09:12:03;;;;;;;8.80;4.35;;;;;;;;;;5033150;28;20040;-53
2021/10/30 09:14:30;;;;;;;7.70;4.03;;;;;;;;;;5031900;28;20056;-53
2021/10/30 09:17:17;;;;;;;8.38;4.28;;;;;;;;;;5032586;28;20030;-53
2021/10/30 09:19:54;;;;;;;14.10;4.63;;;;;;;;;;5040469;28;20156;-54
2021/10/30 09:22:21;;;;;;;7.60;4.50;;;;;;;;;;5041093;28;20025;-53
2021/10/30 09:24:57;;;;;;;7.93;5.00;;;;;;;;;;5031795;28;20436;-54
2021/10/30 09:27:24;;;;;;;8.55;4.25;;;;;;;;;;5032892;28;20022;-54
2021/10/30 09:29:57;;;;;;;6.28;3.83;;;;;;;;;;5031213;28;20030;-54
2021/10/30 09:32:24;;;;;;;6.38;3.80;;;;;;;;;;5036482;28;20037;-54
2021/10/30 09:34:50;;;;;;;4.97;3.00;;;;;;;;;;5050245;28;20031;-54
2021/10/30 09:37:20;;;;;;;5.80;3.30;;;;;;;;;;5052185;28;20385;-53
2021/10/30 09:39:46;;;;;;;8.90;4.35;;;;;;;;;;5052155;28;20024;-54
2021/10/30 09:42:25;;;;;;;9.50;4.45;;;;;;;;;;5052280;28;20029;-53
2021/10/30 09:45:05;;;;;;;6.38;3.45;;;;;;;;;;5051184;28;20021;-52
2021/10/30 09:47:32;;;;;;;7.82;4.03;;;;;;;;;;5052261;28;20028;-53
2021/10/30 09:49:58;;;;;;;12.00;4.35;;;;;;;;;;5052475;28;20029;-53
2021/10/30 09:52:27;;;;;;;10.88;4.60;;;;;;;;;;5052557;28;20033;-53
2021/10/30 09:54:53;;;;;;;5.35;3.55;;;;;;;;;;5051637;28;20025;-53
2021/10/30 09:57:28;;;;;;;12.25;3.92;;;;;;;;;;5052089;28;20021;-54
2021/10/30 09:59:54;;;;;;;6.22;4.13;;;;;;;;;;5052084;28;20409;-53
2021/10/30 10:02:22;;;;;;;8.48;4.15;;;;;;;;;;5043868;28;20025;-54
2021/10/30 10:04:49;;;;;;;7.03;3.33;;;;;;;;;;5045061;28;20025;-53
2021/10/30 10:07:16;;;;;;;7.57;3.88;;;;;;;;;;5047000;28;20514;-54
2021/10/30 10:09:42;;;;;;;5.32;3.65;;;;;;;;;;5049688;28;20454;-54
2021/10/30 10:12:13;;;;;;;6.70;4.30;;;;;;;;;;5049697;28;20037;-53
2021/10/30 10:14:40;;;;;;;4.72;3.10;;;;;;;;;;5031514;28;20030;-53
2021/10/30 10:17:06;;;;;;;5.43;3.25;;;;;;;;;;5031422;28;20017;-53
2021/10/30 10:19:33;;;;;;;6.32;3.47;;;;;;;;;;5031588;28;20447;-54
2021/10/30 10:21:59;;;;;;;8.20;3.78;;;;;;;;;;5031769;28;20172;-54
2021/10/30 10:24:36;;;;;;;5.45;3.42;;;;;;;;;;5030853;28;20034;-53
2021/10/30 10:27:03;;;;;;;6.40;3.63;;;;;;;;;;5032261;28;20026;-53
2021/10/30 10:29:32;;;;;;;9.00;3.35;;;;;;;;;;5031727;28;20033;-53
2021/10/30 10:31:59;;;;;;;5.30;3.08;;;;;;;;;;5034534;28;20590;-54
2021/10/30 10:34:30;;;;;;;6.90;3.33;;;;;;;;;;5071151;28;20067;-53
2021/10/30 10:37:08;;;;;;;4.20;2.75;;;;;;;;;;5071644;28;20024;-54
2021/10/30 10:39:34;;;;;;;5.47;3.17;;;;;;;;;;5038050;28;20017;-54
2021/10/30 10:42:00;;;;;;;9.98;4.68;;;;;;;;;;5052678;28;20024;-53
2021/10/30 10:44:26;;;;;;;10.95;5.10;;;;;;;;;;5054774;28;20052;-53
2021/10/30 10:46:54;;;;;;;6.85;3.88;;;;;;;;;;5040922;28;20073;-53
2021/10/30 10:49:44;;;;;;;7.95;4.55;;;;;;;;;;5035207;28;20025;-53
2021/10/30 10:52:16;;;;;;;9.07;4.28;;;;;;;;;;5035502;28;20466;-54
2021/10/30 10:57:24;;;;;;;8.20;4.55;;;;;;;;;;5035293;28;20025;-54
2021/10/30 11:00:00;;;;;;;6.32;3.90;;;;;;;;;;5034394;28;20144;-52
2021/10/30 11:02:30;;;;;;;8.52;4.15;;;;;;;;;;5037905;28;20021;-53
2021/10/30 11:05:09;;;;;;;5.88;3.90;;;;;;;;;;5036410;28;20025;-54
2021/10/30 11:07:47;;;;;;;6.55;3.65;;;;;;;;;;5035303;28;20044;-53
2021/10/30 11:10:15;;;;;;;7.93;3.80;;;;;;;;;;5053722;28;20025;-53
2021/10/30 11:13:06;;;;;;;10.75;5.30;;;;;;;;;;5054957;28;20124;-54
2021/10/30 11:15:41;;;;;;;6.35;3.75;;;;;;;;;;5054225;28;20108;-53
2021/10/30 11:18:12;;;;;;;5.18;3.75;;;;;;;;;;5046635;28;20104;-53
2021/10/30 11:20:43;;;;;;;6.90;4.07;;;;;;;;;;5052485;28;20028;-54
2021/10/30 11:23:09;;;;;;;;;;;;;;;;;;5054110;28;20500;-53
2021/10/30 11:25:35;;;;;;;8.35;3.85;;;;;;;;;;5054573;28;19991;-53
2021/10/30 11:28:01;;;;;;;9.15;4.75;;;;;;;;;;5055038;28;20021;-53
2021/10/30 11:30:43;;;;;;;7.15;4.15;;;;;;;;;;5052762;28;20068;-53
2021/10/30 11:33:21;;;;;;;9.10;4.72;;;;;;;;;;5041021;28;20120;-53
2021/10/30 11:35:57;;;;;;;8.82;4.38;;;;;;;;;;5046407;28;20059;-53
2021/10/30 11:38:23;;;;;;;9.05;4.65;;;;;;;;;;5036618;28;20471;-53
2021/10/30 11:41:03;;;;;;;5.75;3.90;;;;;;;;;;5050885;28;20033;-53
2021/10/30 11:43:29;;;;;;;7.25;4.35;;;;;;;;;;5049151;28;20032;-53
2021/10/30 11:46:06;;;;;;;8.27;4.75;;;;;;;;;;5049220;28;20114;-54
2021/10/30 11:48:55;;;;;;;7.25;4.68;;;;;;;;;;5047833;28;20459;-54
2021/10/30 11:51:26;;;;;;;7.70;5.10;;;;;;;;;;5044010;28;20029;-53
2021/10/30 11:53:53;;;;;;;7.95;4.60;;;;;;;;;;5049079;28;20462;-53
2021/10/30 11:56:25;;;;;;;10.40;5.35;;;;;;;;;;5053512;28;20438;-53
2021/10/30 11:58:51;;;;;;;9.00;5.03;;;;;;;;;;5053850;28;20024;-54
2021/10/30 12:01:34;;;;;;;11.00;5.15;;;;;;;;;;5053415;28;20028;-53
2021/10/30 12:04:01;;;;;;;8.88;4.95;;;;;;;;;;5052519;28;20078;-53
2021/10/30 12:06:27;;;;;;;7.60;4.57;;;;;;;;;;5050184;28;20649;-53
2021/10/30 12:08:56;;;;;;;6.63;4.28;;;;;;;;;;5054157;28;20025;-53
2021/10/30 12:11:23;;;;;;;7.28;4.20;;;;;;;;;;5050648;28;20082;-54
2021/10/30 12:13:50;;;;;;;7.15;3.97;;;;;;;;;;5053033;28;20029;-53
2021/10/30 12:16:17;;;;;;;8.48;4.28;;;;;;;;;;5053426;28;20013;-53
2021/10/30 12:18:43;;;;;;;7.03;4.13;;;;;;;;;;5053369;28;20439;-53
2021/10/30 12:21:10;;;;;;;10.15;4.68;;;;;;;;;;5053743;28;20048;-52
2021/10/30 12:23:51;;;;;;;7.40;4.38;;;;;;;;;;5052810;28;20354;-51
2021/10/30 12:26:17;;;;;;;10.65;4.78;;;;;;;;;;5053698;28;20103;-51
2021/10/30 12:28:43;;;;;;;8.07;4.85;;;;;;;;;;5053450;28;20025;-51
2021/10/30 12:31:12;;;;;;;6.35;4.13;;;;;;;;;;5052934;28;20036;-51
2021/10/30 12:33:38;;;;;;;8.90;4.95;;;;;;;;;;5052812;28;20033;-51
2021/10/30 12:36:05;;;;;;;6.47;4.15;;;;;;;;;;5053508;28;20021;-52
2021/10/30 12:38:31;;;;;;;11.38;4.90;;;;;;;;;;5053746;28;20048;-54
2021/10/30 12:40:58;;;;;;;8.07;5.18;;;;;;;;;;5053173;28;20434;-53
2021/10/30 12:43:26;;;;;;;11.13;6.03;;;;;;;;;;5053019;28;20099;-53
2021/10/30 12:45:57;;;;;;;9.13;5.05;;;;;;;;;;5052952;28;20107;-53
2021/10/30 12:48:25;;;;;;;11.90;5.43;;;;;;;;;;5053406;28;20114;-54
2021/10/30 12:51:02;;;;;;;12.27;5.78;;;;;;;;;;5052047;28;20052;-53
2021/10/30 12:53:32;;;;;;;12.70;7.32;;;;;;;;;;5037872;28;20059;-53
2021/10/30 12:56:19;;;;;;;13.32;5.40;;;;;;;;;;5042648;28;20347;-54
2021/10/30 12:58:46;;;;;;;10.82;5.78;;;;;;;;;;5048643;28;20072;-53
2021/10/30 13:01:22;;;;;;;10.35;5.88;;;;;;;;;;5053308;28;20295;-53
2021/10/30 13:03:49;;;;;;;17.77;5.55;;;;;;;;;;5051331;28;20021;-53
2021/10/30 13:06:17;;;;;;;8.88;4.97;;;;;;;;;;5052774;28;20447;-54
2021/10/30 13:08:50;;;;;;;7.03;4.07;;;;;;;;;;5052839;28;20029;-53
2021/10/30 13:11:18;;;;;;;9.98;4.90;;;;;;;;;;5052777;28;20025;-53
2021/10/30 13:13:44;;;;;;;8.40;4.18;;;;;;;;;;5052099;28;20039;-53
2021/10/30 13:16:10;;;;;;;11.35;5.10;;;;;;;;;;5052597;28;20029;-53
2021/10/30 13:18:36;;;;;;;9.90;5.10;;;;;;;;;;5052714;28;20032;-54
2021/10/30 13:21:02;;;;;;;13.07;5.10;;;;;;;;;;5052235;28;20017;-50
2021/10/30 13:23:29;;;;;;;11.23;5.50;;;;;;;;;;5052026;28;20056;-50
2021/10/30 13:25:55;;;;;;;12.25;6.10;;;;;;;;;;5060223;28;20442;-50
2021/10/30 13:28:21;;;;;;;9.50;5.60;;;;;;;;;;5048891;28;20036;-50
2021/10/30 13:30:47;;;;;;;14.30;4.90;;;;;;;;;;5031806;28;20029;-50
2021/10/30 13:33:15;;;;;;;9.93;5.20;;;;;;;;;;5031660;28;20075;-51
2021/10/30 13:35:41;;;;;;;13.93;5.40;;;;;;;;;;5044676;28;20395;-50
2021/10/30 13:38:07;;;;;;;12.95;5.75;;;;;;;;;;5051669;28;20477;-50
2021/10/30 13:40:33;;;;;;;14.57;4.60;;;;;;;;;;5051928;28;20025;-50
2021/10/30 13:42:59;;;;;;;8.05;4.25;;;;;;;;;;5051982;28;20025;-50
2021/10/30 13:45:25;;;;;;;11.43;5.47;;;;;;;;;;5039120;28;20029;-50
2021/10/30 13:47:52;;;;;;;9.77;5.75;;;;;;;;;;5032215;28;20021;-50
2021/10/30 13:50:18;;;;;;;13.80;6.40;;;;;;;;;;5032674;28;20026;-53
2021/10/30 13:52:44;;;;;;;9.82;6.05;;;;;;;;;;5031501;28;20044;-53
2021/10/30 13:55:10;;;;;;;8.23;4.82;;;;;;;;;;5031602;28;20053;-53
2021/10/30 13:57:36;;;;;;;10.00;5.00;;;;;;;;;;5032304;28;20064;-53
2021/10/30 14:00:03;;;;;;;8.65;5.75;;;;;;;;;;5031724;28;20324;-53
2021/10/30 14:02:30;;;;;;;8.25;5.25;;;;;;;;;;5032351;28;20075;-53
2021/10/30 14:04:56;;;;;;;10.02;5.65;;;;;;;;;;5031413;28;20458;-53
2021/10/30 14:07:22;;;;;;;8.52;5.55;;;;;;;;;;5031388;28;20021;-53
2021/10/30 14:09:48;;;;;;;11.40;5.65;;;;;;;;;;5032277;28;20022;-53
2021/10/30 14:12:13;;;;;;;11.98;6.20;;;;;;;;;;5032046;28;20048;-52
2021/10/30 14:14:39;;;;;;;10.75;5.53;;;;;;;;;;5033147;28;20024;-52
2021/10/30 14:17:06;;;;;;;26.52;9.50;;;;;;;;;;5035695;28;20362;-53
2021/10/30 14:19:31;;;;;;;14.00;7.75;;;;;;;;;;5035870;28;20021;-53
2021/10/30 14:21:57;;;;;;;16.25;7.80;;;;;;;;;;5035112;28;20060;-52
2021/10/30 14:24:24;;;;;;;13.55;6.00;;;;;;;;;;5035249;28;20049;-52
2021/10/30 14:26:50;;;;;;;11.07;6.70;;;;;;;;;;5058279;28;20025;-52
2021/10/30 14:29:16;;;;;;;16.17;7.50;;;;;;;;;;5075210;28;20028;-52
2021/10/30 14:31:42;;;;;;;17.17;8.20;;;;;;;;;;5073846;28;20039;-52
2021/10/30 14:34:09;;;;;;;14.50;6.95;;;;;;;;;;5075473;28;20059;-53
2021/10/30 14:36:34;;;;;;;13.30;6.68;;;;;;;;;;5074848;28;20024;-53
2021/10/30 14:39:00;;;;;;;11.27;6.57;;;;;;;;;;5068838;28;20429;-52
2021/10/30 14:41:27;;;;;;;14.43;6.70;;;;;;;;;;5037493;28;20056;-52